ADDS METAR Data

Data at: 0532 UTC 19 Jan 2018

METAR for:KGNR (Greenville Muni, ME, US)
Text:KGNR 190456Z AUTO 32009KT M07/M08 A2975 RMK AO1 SLP099 T10671083 410441111
Temperature: -6.7°C ( 20°F)
Dewpoint: -8.3°C ( 17°F) [RH = 88%]
Pressure (altimeter):29.75 inches Hg (1007.5 mb) [Sea level pressure: 1009.9 mb]
Winds:from the NW (320 degrees) at 10 MPH (9 knots; 4.6 m/s)
QC Flag:automated observation with no human augmentation